VEBU 060900Z 11008KT 6000 SCT018 SCT025 31/25 Q1006 NOSIG
From batch tds/metars/production/2022/10/6/h09_m29_metars.cache.csv.gz
Observed at (about 2 hours ago)
Identifier VEBU
VEBU 020500Z 34008KT 6000 NSC 30/22 Q1007 NOSIG
From batch tds/metars/production/2022/10/2/h05_m24_metars.cache.csv.gz
Observed at (4 days ago)
Identifier VEBU
VEBU 300600Z 36006KT 6000 SCT018 31/23 Q1008 NOSIG
From batch tds/metars/production/2022/9/30/h06_m21_metars.cache.csv.gz
Observed at (6 days ago)
Identifier VEBU
talk